SKPE/PEI METAR and TAF weather

Enter ICAO airport designator
Station Type Date Time Source
SKPE METAR 2022/01/29 14:00 UTC NOAA

SKPE 291400Z VRB02KT 9999 SCT017 22/17 Q1020 RMK A3013


Station Type Date Time Source
SKPE Decoded METAR 2022/01/29 14:00 UTC NOAA

Pereira / Matecana, Colombia (SKPE) 04-49N 075-44W 1342M
Jan 29, 2022 - 09:00 AM EST / 2022.01.29 1400 UTC
Wind: Variable at 2 MPH (2 KT):0
Visibility: greater than 7 mile(s):0
Sky conditions: partly cloudy
Temperature: 71 F (22 C)
Dew Point: 62 F (17 C)
Relative Humidity: 73%
Pressure (altimeter): 30.12 in. Hg (1020 hPa)
ob: SKPE 291400Z VRB02KT 9999 SCT017 22/17 Q1020 RMK A3013
cycle: 14

Station Type Date Time Source
SKPE TAF 2022/01/29 12:45 UTC NOAA

TAF SKPE 291030Z 2912/3012 VRB03KT 9999 SCT020
TEMPO 2920/2924 32010KT 5000 TSRA SCT017CB TX27/2919Z TN18/2910Z

Example: see airport list